LIPY/AOI METAR and TAF weather

Enter ICAO airport designator
Station Type Date Time Source
LIPY METAR 2019/10/15 03:34 UTC NOAA

LIPY 150334Z AUTO 17002KT 2700 BR NCD 13/13 Q1017


Station Type Date Time Source
LIPY Decoded METAR 2019/10/15 03:34 UTC NOAA

Falconara, Italy (LIPY) 43-37N 013-22E 10M
Oct 14, 2019 - 11:34 PM EDT / 2019.10.15 0334 UTC
Wind: from the S (170 degrees) at 2 MPH (2 KT):0
Visibility: 1 mile(s):0
Weather: mist
Temperature: 55 F (13 C)
Dew Point: 55 F (13 C)
Relative Humidity: 100%
Pressure (altimeter): 30.03 in. Hg (1017 hPa)
ob: LIPY 150334Z AUTO 17002KT 2700 BR NCD 13/13 Q1017
cycle: 3

Station Type Date Time Source
LIPY TAF 2019/10/14 18:21 UTC NOAA

TAF LIPY 141700Z 1418/1518 VRB05KT 5000 BR SCT020
TEMPO 1500/1509 2000
BECMG 1509/1511 16012KT 8000

Example: see airport list